Flight Track Log - Related Links

Times and Time Zones

All times are in EDT time to prevent confusion due to time zone crossing. See the CPT1940 flight status page for this flight to view local times or setup timezone preferences in your user account.

Time Position Orientation Groundspeed Altitude Reporting Facility
EDT Latitude Longitude Course Direction KTS MPH feet Rate Location/Type
Fri 10:12:05 41.9042 -103.6453 309° West 115 132 5,800  Level Denver Center
Fri 10:13:07 41.9292 -103.6811 313° West 117 135 7,100 1,065 Climbing Denver Center
Fri 10:14:00 42.0354 -103.8458 311° West  Level FlightAware Approximate
Fri 10:14:09 41.9503 -103.7122 312° West 117 135 8,000  Level Denver Center
Fri 10:15:00 42.0636 -103.8895 311° West  Level FlightAware Approximate
Fri 10:15:10 41.9725 -103.7494 309° West 116 133 8,900  Level Denver Center
Fri 10:16:00 42.0919 -103.9334 311° West  Level FlightAware Approximate
Fri 10:16:12 41.9931 -103.7811 311° West 116 133 9,600  Level Denver Center
Fri 10:17:14 42.0142 -103.8144 310° West 119 137 10,100 242 Climbing Denver Center
Fri 10:18:16 42.0442 -103.8603 311° West 135 155 10,100  Level Denver Center
Fri 10:19:18 42.0722 -103.9022 312° West 150 173 10,100  Level Denver Center
Fri 10:20:20 42.1031 -103.9508 311° West 153 176 10,100  Level Denver Center
Fri 10:21:22 42.1297 -103.9931 310° West 153 176 10,100  Level Denver Center
Fri 10:22:23 42.1603 -104.0422 310° West 153 176 10,100  Level Denver Center
Fri 10:23:25 42.1867 -104.0842 310° West 153 176 10,100  Level Denver Center
Fri 10:24:27 42.2183 -104.1331 311° West 154 177 10,100  Level Denver Center
Fri 10:25:29 42.2458 -104.1753 311° West 155 178 10,100  Level Denver Center
Fri 10:26:31 42.2775 -104.2256 310° West 156 180 10,100  Level Denver Center
Fri 10:27:33 42.3044 -104.2689 310° West 157 181 10,100  Level Denver Center
Fri 10:28:35 42.3325 -104.3125 311° West 158 182 10,100 -48 Level Denver Center
Fri 10:29:38 42.3656 -104.3642 311° West 161 185 10,000 -96 Descending Denver Center
Fri 10:30:40 42.3950 -104.4094 311° West 164 189 9,900 -48 Descending Denver Center
Fri 10:31:42 42.4264 -104.4617 309° West 162 186 9,900  Level Denver Center
Fri 10:32:44 42.4539 -104.5064 310° West 161 185 9,900  Level Denver Center
Fri 10:33:46 42.4864 -104.5586 310° West 161 185 9,900 48 Level Denver Center
Fri 10:34:48 42.5147 -104.6036 311° West 162 186 10,000 48 Climbing Denver Center
Fri 10:35:50 42.5336 -104.6547 297° West 160 184 10,000 48 Level Denver Center
Fri 10:36:52 42.5542 -104.7169 294° West 160 184 10,100 48 Climbing Denver Center
Fri 10:37:54 42.5722 -104.7697 295° West 160 184 10,100  Level Denver Center
Fri 10:38:56 42.5925 -104.8289 295° West 157 181 10,100 -48 Level Denver Center
Fri 10:39:58 42.6094 -104.8811 294° West 157 181 10,000  Descending Denver Center
Fri 10:41:00 42.6292 -104.9422 294° West 158 182 10,100 48 Climbing Denver Center
Fri 10:42:02 42.6453 -104.9953 292° West 158 182 10,100 -48 Level Denver Center
Fri 10:43:04 42.6653 -105.0569 294° West 160 184 10,000  Descending Denver Center
Fri 10:44:06 42.6819 -105.1092 293° West 157 181 10,100 48 Climbing Denver Center
Fri 10:45:08 42.7000 -105.1617 295° West 159 183 10,100  Level Denver Center
Fri 10:46:10 42.7203 -105.2236 294° West 160 184 10,100  Level Denver Center
Fri 10:47:12 42.7375 -105.2769 294° West 161 185 10,100  Level Denver Center
Fri 10:48:14 42.7575 -105.3386 294° West 160 184 10,100  Level Denver Center
Fri 10:49:16 42.7744 -105.3911 294° West 159 183 10,100  Level Denver Center
Fri 10:50:18 42.7953 -105.4531 295° West 160 184 10,100  Level Denver Center
Fri 10:51:20 42.8122 -105.5067 293° West 161 185 10,100  Level Denver Center
Fri 10:52:22 42.8331 -105.5689 295° West 161 185 10,100  Level Denver Center
Fri 10:53:24 42.8506 -105.6206 295° West 159 183 10,100  Level Denver Center
Fri 10:54:26 42.8708 -105.6828 294° West 160 184 10,100  Level Denver Center
Fri 10:55:29 42.8878 -105.7378 293° West 162 186 10,100  Level Denver Center
Fri 10:56:31 42.9086 -105.8025 294° West 165 190 10,100  Level Denver Center
Fri 10:57:33 42.9233 -105.8572 290° West 164 189 10,100  Level Denver Center
Fri 10:58:35 42.9189 -105.9242 265° West 159 183 10,100  Level Denver Center
Fri 10:59:37 42.9175 -105.9808 268° West 157 181 10,100 -97 Level Denver Center
Fri 11:00:39 42.9164 -106.0375 268° West 157 181 9,900 -532 Descending Denver Center
Fri 11:01:41 42.9150 -106.1061 268° West 160 184 9,000 -774 Descending Denver Center
Fri 11:02:43 42.9142 -106.1669 269° West 164 189 8,300 -484 Descending Denver Center
Fri 11:03:45 42.9125 -106.2367 268° West 166 191 8,000 -532 Descending Denver Center
Fri 11:04:47 42.9122 -106.2950 270° West 163 188 7,200 -532 Descending Denver Center
Fri 11:05:49 42.9106 -106.3594 268° West 161 185 6,900 -290 Descending Denver Center
Fri 11:07:00 42.9000 -106.4290 270° West  Level FlightAware Approximate
Fri 11:14:00 42.9000 -106.4500 270° West  Level FlightAware Approximate
Fri 11:15:00 42.9080 -106.4644 270° West  Level Estimated
Fri 11:16:00 42.9080 -106.4644 270° West  Level Estimated
Fri 11:17:00 42.9080 -106.4644 270° West  Level Estimated

Login

Don't have an account? Register now (free) for customized features, flight alerts, and more!